createdAt,value
2022-09-11T00:01:48.027Z,1.50
2022-09-11T00:04:16.291Z,1.50
2022-09-11T00:06:44.909Z,1.50
2022-09-11T00:09:13.950Z,1.60
2022-09-11T00:11:44.317Z,1.33
2022-09-11T00:14:14.916Z,2.17
2022-09-11T00:16:47.421Z,1.48
2022-09-11T00:19:19.400Z,1.60
2022-09-11T00:21:49.247Z,1.25
2022-09-11T00:24:17.724Z,1.35
2022-09-11T00:26:47.921Z,1.50
2022-09-11T00:29:16.191Z,1.45
2022-09-11T00:31:45.835Z,1.60
2022-09-11T00:34:14.150Z,2.53
2022-09-11T00:36:43.246Z,1.60
2022-09-11T00:39:12.692Z,1.65
2022-09-11T00:41:44.929Z,1.40
2022-09-11T00:45:01.390Z,1.33
2022-09-11T00:47:32.250Z,1.57
2022-09-11T00:50:12.065Z,1.35
2022-09-11T00:52:53.103Z,1.65
2022-09-11T00:55:24.269Z,1.40
2022-09-11T00:57:57.014Z,3.40
2022-09-11T01:00:25.377Z,3.50
2022-09-11T01:02:57.206Z,3.50
2022-09-11T01:05:29.342Z,2.40
2022-09-11T01:07:57.801Z,1.95
2022-09-11T01:10:37.684Z,1.20
2022-09-11T01:13:17.447Z,1.50
2022-09-11T01:15:55.416Z,1.67
2022-09-11T01:18:32.546Z,1.50
2022-09-11T01:21:40.083Z,1.67
2022-09-11T01:24:34.183Z,1.60
2022-09-11T01:27:32.852Z,2.30
2022-09-11T01:30:10.895Z,1.70
2022-09-11T01:33:03.867Z,1.70
2022-09-11T01:35:50.768Z,1.98
2022-09-11T01:38:25.222Z,3.90
2022-09-11T01:40:57.583Z,3.25
2022-09-11T01:43:30.591Z,3.00
2022-09-11T01:46:02.596Z,1.70
2022-09-11T01:48:39.030Z,1.92
2022-09-11T01:51:14.096Z,1.50
2022-09-11T01:53:50.165Z,4.53
2022-09-11T01:56:23.442Z,2.08
2022-09-11T01:58:58.955Z,2.03
2022-09-11T02:01:33.718Z,1.80
2022-09-11T02:04:08.277Z,1.73
2022-09-11T02:06:43.447Z,1.57
2022-09-11T02:09:15.788Z,1.70
2022-09-11T02:11:45.175Z,1.70
2022-09-11T02:14:21.791Z,1.80
2022-09-11T02:16:52.891Z,3.10
2022-09-11T02:19:25.354Z,1.80
2022-09-11T02:21:53.844Z,1.90
2022-09-11T02:24:23.826Z,1.80
2022-09-11T02:26:56.342Z,1.70
2022-09-11T02:29:26.768Z,1.70
2022-09-11T02:31:55.861Z,1.63
2022-09-11T02:34:29.733Z,1.90
2022-09-11T02:37:32.976Z,1.70
2022-09-11T02:40:31.993Z,1.70
2022-09-11T02:43:43.718Z,1.90
2022-09-11T02:46:36.967Z,2.20
2022-09-11T02:49:19.572Z,1.80
2022-09-11T02:51:56.340Z,1.80
2022-09-11T02:54:34.516Z,2.00
2022-09-11T02:57:09.820Z,2.03
2022-09-11T02:59:43.524Z,2.00
2022-09-11T03:02:16.734Z,2.03
2022-09-11T03:04:45.596Z,2.10
2022-09-11T03:07:13.835Z,1.73
2022-09-11T03:09:42.129Z,1.90
2022-09-11T03:12:10.833Z,2.58
2022-09-11T03:14:39.273Z,2.92
2022-09-11T03:17:07.797Z,3.05
2022-09-11T03:19:37.498Z,2.13
2022-09-11T03:22:05.868Z,2.25
2022-09-11T03:24:34.128Z,2.95
2022-09-11T03:27:02.444Z,5.22
2022-09-11T03:29:31.764Z,3.00
2022-09-11T03:32:00.476Z,3.30
2022-09-11T03:34:29.771Z,2.05
2022-09-11T03:37:00.282Z,2.70
2022-09-11T03:39:28.575Z,3.05
2022-09-11T03:41:58.246Z,2.50
2022-09-11T03:44:27.293Z,3.10
2022-09-11T03:46:56.457Z,2.60
2022-09-11T03:49:24.700Z,2.80
2022-09-11T03:51:52.898Z,3.20
2022-09-11T03:54:22.492Z,5.55
2022-09-11T03:56:50.714Z,3.22
2022-09-11T03:59:20.389Z,8.18
2022-09-11T04:01:50.936Z,6.97
2022-09-11T04:04:20.633Z,8.75
2022-09-11T04:06:48.864Z,6.22
2022-09-11T04:09:17.301Z,9.40
2022-09-11T04:11:46.867Z,8.65
2022-09-11T04:14:16.025Z,9.75
2022-09-11T04:16:44.270Z,7.03
2022-09-11T04:19:13.663Z,9.00
2022-09-11T04:21:42.341Z,9.48
2022-09-11T04:24:11.932Z,4.05
2022-09-11T04:26:40.226Z,6.43
2022-09-11T04:29:09.932Z,3.58
2022-09-11T04:31:38.526Z,4.30
2022-09-11T04:34:06.975Z,9.98
2022-09-11T04:36:35.180Z,6.70
2022-09-11T04:39:03.563Z,4.22
2022-09-11T04:41:31.807Z,4.50
2022-09-11T04:44:05.132Z,5.00
2022-09-11T04:46:35.304Z,4.40
2022-09-11T04:49:03.650Z,4.40
2022-09-11T04:51:35.411Z,7.40
2022-09-11T04:54:04.697Z,4.15
2022-09-11T04:56:37.814Z,4.53
2022-09-11T04:59:13.269Z,4.53
2022-09-11T05:01:44.173Z,5.68
2022-09-11T05:04:13.845Z,5.27
2022-09-11T05:06:45.384Z,10.45
2022-09-11T05:09:13.633Z,18.70
2022-09-11T05:11:42.178Z,6.33
2022-09-11T05:14:11.719Z,17.58
2022-09-11T05:16:39.990Z,7.90
2022-09-11T05:19:09.658Z,6.97
2022-09-11T05:21:38.358Z,6.25
2022-09-11T05:24:06.972Z,7.07
2022-09-11T05:26:37.705Z,8.30
2022-09-11T05:29:09.417Z,17.98
2022-09-11T05:31:38.197Z,10.30
2022-09-11T05:34:08.738Z,12.55
2022-09-11T05:36:38.326Z,11.23
2022-09-11T05:39:06.788Z,10.52
2022-09-11T05:41:35.030Z,9.98
2022-09-11T05:44:04.017Z,24.40
2022-09-11T05:46:32.249Z,24.45
2022-09-11T05:49:00.496Z,10.25
2022-09-11T05:51:28.783Z,14.53
2022-09-11T05:53:58.690Z,9.95
2022-09-11T05:56:28.254Z,10.27
2022-09-11T05:58:57.075Z,12.32
2022-09-11T06:01:27.676Z,9.95
2022-09-11T06:03:56.704Z,6.28
2022-09-11T06:06:26.096Z,5.78
2022-09-11T06:08:56.216Z,5.88
2022-09-11T06:11:25.825Z,16.75
2022-09-11T06:13:54.175Z,16.27
2022-09-11T06:16:25.099Z,25.30
2022-09-11T06:18:54.771Z,15.27
2022-09-11T06:21:25.207Z,8.10
2022-09-11T06:23:54.423Z,5.10
2022-09-11T06:26:27.133Z,6.13
2022-09-11T06:28:55.895Z,7.00
2022-09-11T06:31:26.734Z,6.50
2022-09-11T06:33:55.378Z,7.72
2022-09-11T06:36:27.089Z,6.38
2022-09-11T06:38:56.882Z,7.18
2022-09-11T06:41:28.214Z,31.27
2022-09-11T06:43:56.598Z,17.77
2022-09-11T06:46:26.945Z,19.33
2022-09-11T06:48:57.617Z,33.42
2022-09-11T06:51:27.075Z,26.92
2022-09-11T06:53:58.142Z,8.70
2022-09-11T06:56:28.104Z,6.28
2022-09-11T06:58:56.630Z,6.22
2022-09-11T07:01:25.324Z,6.45
2022-09-11T07:03:55.410Z,6.78
2022-09-11T07:06:25.971Z,6.70
2022-09-11T07:08:56.966Z,9.80
2022-09-11T07:11:25.269Z,6.03
2022-09-11T07:13:55.017Z,6.63
2022-09-11T07:16:23.373Z,7.25
2022-09-11T07:18:51.627Z,7.18
2022-09-11T07:21:23.036Z,23.10
2022-09-11T07:23:54.610Z,30.92
2022-09-11T07:26:24.524Z,31.98
2022-09-11T07:28:55.963Z,22.50
2022-09-11T07:31:29.177Z,20.25
2022-09-11T07:33:58.280Z,32.22
2022-09-11T07:36:28.643Z,8.90
2022-09-11T07:38:57.356Z,16.15
2022-09-11T07:41:27.715Z,22.90
2022-09-11T07:43:59.785Z,9.57
2022-09-11T07:46:29.989Z,30.38
2022-09-11T07:48:58.905Z,13.88
2022-09-11T07:51:28.173Z,8.57
2022-09-11T07:54:00.118Z,24.08
2022-09-11T07:56:29.327Z,22.90
2022-09-11T07:58:59.140Z,19.42
2022-09-11T08:01:30.437Z,20.77
2022-09-11T08:04:01.078Z,11.50
2022-09-11T08:06:32.084Z,8.18
2022-09-11T08:09:02.820Z,13.85
2022-09-11T08:11:36.029Z,15.40
2022-09-11T08:14:07.111Z,27.27
2022-09-11T08:16:36.366Z,14.37
2022-09-11T08:19:05.520Z,19.77
2022-09-11T08:21:34.224Z,22.35
2022-09-11T08:24:03.916Z,8.82
2022-09-11T08:26:32.822Z,7.38
2022-09-11T08:29:01.959Z,7.68
2022-09-11T08:31:33.724Z,7.80
2022-09-11T08:34:02.081Z,11.60
2022-09-11T08:36:30.730Z,8.97
2022-09-11T08:39:02.596Z,18.88
2022-09-11T08:41:42.070Z,28.15
2022-09-11T08:44:20.978Z,13.25
2022-09-11T08:46:55.430Z,10.18
2022-09-11T08:49:28.077Z,6.55
2022-09-11T08:52:02.275Z,8.05
2022-09-11T08:54:35.049Z,24.77
2022-09-11T08:57:17.803Z,16.52
2022-09-11T09:00:12.339Z,18.00
2022-09-11T09:03:22.947Z,30.92
2022-09-11T09:05:58.050Z,18.27
2022-09-11T09:08:50.161Z,28.95
2022-09-11T09:11:31.884Z,17.55
2022-09-11T09:14:29.619Z,7.37
2022-09-11T09:17:01.885Z,6.18
2022-09-11T09:19:36.333Z,18.20
2022-09-11T09:22:15.135Z,6.22
2022-09-11T09:24:48.563Z,8.55
2022-09-11T09:27:22.502Z,10.90
2022-09-11T09:29:55.848Z,5.22
2022-09-11T09:32:32.403Z,7.30
2022-09-11T09:35:08.570Z,6.30
2022-09-11T09:37:37.423Z,7.00
2022-09-11T09:40:10.412Z,14.30
2022-09-11T09:43:12.183Z,20.17
2022-09-11T09:45:49.090Z,14.47
2022-09-11T09:48:17.973Z,5.20
2022-09-11T09:50:48.737Z,16.80
2022-09-11T09:53:27.922Z,15.85
2022-09-11T09:55:56.974Z,15.47
2022-09-11T09:58:30.607Z,13.37
2022-09-11T10:00:59.359Z,6.32
2022-09-11T10:03:29.828Z,22.57
2022-09-11T10:06:00.332Z,14.93
2022-09-11T10:08:34.698Z,10.68
2022-09-11T10:11:04.991Z,8.75
2022-09-11T10:13:35.119Z,10.13
2022-09-11T10:16:05.941Z,4.68
2022-09-11T10:18:37.939Z,14.43
2022-09-11T10:21:29.487Z,16.35
2022-09-11T10:24:00.403Z,11.13
2022-09-11T10:26:34.080Z,9.40
2022-09-11T10:29:09.946Z,11.65
2022-09-11T10:31:41.985Z,10.90
2022-09-11T10:34:17.288Z,17.60
2022-09-11T10:36:56.269Z,7.23
2022-09-11T10:39:27.092Z,13.48
2022-09-11T10:41:59.386Z,6.07
2022-09-11T10:44:29.366Z,8.18
2022-09-11T10:47:06.988Z,7.07
2022-09-11T10:49:36.175Z,8.90
2022-09-11T10:52:22.213Z,5.53
2022-09-11T10:55:04.743Z,7.95
2022-09-11T10:57:44.906Z,4.63
2022-09-11T11:00:20.194Z,7.63
2022-09-11T11:02:52.597Z,7.45
2022-09-11T11:05:28.203Z,11.98
2022-09-11T11:08:39.552Z,7.80
2022-09-11T11:11:34.554Z,4.57
2022-09-11T11:14:30.513Z,7.80
2022-09-11T11:17:09.129Z,3.30
2022-09-11T11:19:59.713Z,4.53
2022-09-11T11:22:51.024Z,5.35
2022-09-11T11:25:28.381Z,7.28
2022-09-11T11:28:19.048Z,8.77
2022-09-11T11:31:01.076Z,3.33
2022-09-11T11:33:58.012Z,6.80
2022-09-11T11:36:34.935Z,8.10
2022-09-11T11:39:21.098Z,3.72
2022-09-11T11:42:07.298Z,8.18
2022-09-11T11:44:44.462Z,3.40
2022-09-11T11:47:15.042Z,5.50
2022-09-11T11:49:57.304Z,5.78
2022-09-11T11:52:42.255Z,4.97
2022-09-11T11:55:20.815Z,6.70
2022-09-11T11:58:01.399Z,4.55
2022-09-11T12:00:33.298Z,4.53
2022-09-11T12:03:11.148Z,7.18
2022-09-11T12:05:40.369Z,5.55
2022-09-11T12:08:14.300Z,7.53
2022-09-11T12:10:47.754Z,4.15
2022-09-11T12:13:20.191Z,6.45
2022-09-11T12:16:17.387Z,4.60
2022-09-11T12:19:07.692Z,5.68
2022-09-11T12:21:59.360Z,7.45
2022-09-11T12:24:54.980Z,4.50
2022-09-11T12:27:53.365Z,5.60
2022-09-11T12:30:26.889Z,6.65
2022-09-11T12:32:57.084Z,4.25
2022-09-11T12:35:38.231Z,5.15
2022-09-11T12:38:23.498Z,3.30
2022-09-11T12:40:56.305Z,2.65
2022-09-11T12:43:48.861Z,3.58
2022-09-11T12:47:20.053Z,3.67
2022-09-11T12:49:57.243Z,3.63
2022-09-11T12:52:39.452Z,3.15
2022-09-11T12:55:33.206Z,4.93
2022-09-11T12:58:06.597Z,5.38
2022-09-11T13:00:40.444Z,2.80
2022-09-11T13:03:19.991Z,3.88
2022-09-11T13:05:56.440Z,4.68
2022-09-11T13:08:28.207Z,4.03
2022-09-11T13:11:40.682Z,2.25
2022-09-11T13:14:49.383Z,5.65
2022-09-11T13:17:30.339Z,3.38
2022-09-11T13:20:22.772Z,3.70
2022-09-11T13:22:56.134Z,3.25
2022-09-11T13:25:28.088Z,3.40
2022-09-11T13:28:01.158Z,3.25
2022-09-11T13:30:29.858Z,3.13
2022-09-11T13:33:08.961Z,4.45
2022-09-11T13:35:40.419Z,3.78
2022-09-11T13:38:11.898Z,4.13
2022-09-11T13:40:45.553Z,3.25
2022-09-11T13:43:19.379Z,3.95
2022-09-11T13:45:47.775Z,2.25
2022-09-11T13:48:22.911Z,3.58
2022-09-11T13:50:53.897Z,5.10
2022-09-11T13:53:23.740Z,3.95
2022-09-11T13:55:52.072Z,3.92
2022-09-11T13:58:26.123Z,3.42
2022-09-11T14:00:55.630Z,2.65
2022-09-11T14:03:28.023Z,2.75
2022-09-11T14:06:00.878Z,3.90
2022-09-11T14:08:34.326Z,4.03
2022-09-11T14:11:11.238Z,1.70
2022-09-11T14:13:45.910Z,2.22
2022-09-11T14:16:25.057Z,4.03
2022-09-11T14:18:59.000Z,1.83
2022-09-11T14:21:35.032Z,4.10
2022-09-11T14:24:07.267Z,2.63
2022-09-11T14:26:43.132Z,4.80
2022-09-11T14:29:25.740Z,3.78
2022-09-11T14:31:54.784Z,4.57
2022-09-11T14:34:26.772Z,3.70
2022-09-11T14:37:04.366Z,1.95
2022-09-11T14:39:37.692Z,1.50
2022-09-11T14:42:09.383Z,2.25
2022-09-11T14:44:40.419Z,3.58
2022-09-11T14:47:14.153Z,1.70
2022-09-11T14:49:42.409Z,3.55
2022-09-11T14:52:15.403Z,4.03
2022-09-11T14:54:44.093Z,2.57
2022-09-11T14:57:20.319Z,1.38
2022-09-11T14:59:49.207Z,1.60
2022-09-11T15:02:19.816Z,4.85
2022-09-11T15:04:48.644Z,3.30
2022-09-11T15:07:19.835Z,5.07
2022-09-11T15:09:48.199Z,2.70
2022-09-11T15:12:16.689Z,4.63
2022-09-11T15:14:56.225Z,3.63
2022-09-11T15:17:30.511Z,1.40
2022-09-11T15:19:59.506Z,2.00
2022-09-11T15:22:31.255Z,1.95
2022-09-11T15:25:00.018Z,1.58
2022-09-11T15:27:28.323Z,1.30
2022-09-11T15:29:56.712Z,1.42
2022-09-11T15:32:24.958Z,1.07
2022-09-11T15:34:54.829Z,1.85
2022-09-11T15:37:23.687Z,3.30
2022-09-11T15:39:53.454Z,4.90
2022-09-11T15:42:21.709Z,2.47
2022-09-11T15:44:50.820Z,1.30
2022-09-11T15:47:19.333Z,1.30
2022-09-11T15:49:48.521Z,1.23
2022-09-11T15:52:16.920Z,4.20
2022-09-11T15:54:45.648Z,1.40
2022-09-11T15:57:15.259Z,1.60
2022-09-11T15:59:43.522Z,1.27
2022-09-11T16:02:13.382Z,1.20
2022-09-11T16:04:41.693Z,1.40
2022-09-11T16:07:09.937Z,1.60
2022-09-11T16:09:38.205Z,1.30
2022-09-11T16:12:07.449Z,1.20
2022-09-11T16:14:38.439Z,1.15
2022-09-11T16:17:09.303Z,1.20
2022-09-11T16:19:38.757Z,1.70
2022-09-11T16:22:08.095Z,3.50
2022-09-11T16:24:38.124Z,4.07
2022-09-11T16:27:08.893Z,1.33
2022-09-11T16:30:11.391Z,1.40
2022-09-11T16:32:34.123Z,1.20
2022-09-11T16:35:02.361Z,3.45
2022-09-11T16:37:32.825Z,1.98
2022-09-11T16:40:02.101Z,4.80
2022-09-11T16:42:30.991Z,2.70
2022-09-11T16:45:00.623Z,1.50
2022-09-11T16:47:30.385Z,1.30
2022-09-11T16:50:07.268Z,1.40
2022-09-11T16:52:36.612Z,1.27
2022-09-11T16:55:06.383Z,1.50
2022-09-11T16:57:35.719Z,3.97
2022-09-11T17:00:07.669Z,4.03
2022-09-11T17:02:37.471Z,1.30
2022-09-11T17:05:06.853Z,1.40
2022-09-11T17:07:36.044Z,1.70
2022-09-11T17:10:05.582Z,4.30
2022-09-11T17:12:33.883Z,1.50
2022-09-11T17:15:02.124Z,1.63
2022-09-11T17:17:31.875Z,2.80
2022-09-11T17:20:00.097Z,1.85
2022-09-11T17:22:29.723Z,2.50
2022-09-11T17:24:57.997Z,4.20
2022-09-11T17:27:26.334Z,1.90
2022-09-11T17:29:54.571Z,2.90
2022-09-11T17:32:28.170Z,3.00
2022-09-11T17:34:59.432Z,1.80
2022-09-11T17:37:28.330Z,1.50
2022-09-11T17:39:58.004Z,1.20
2022-09-11T17:42:28.753Z,1.48
2022-09-11T17:44:57.280Z,1.60
2022-09-11T17:47:25.711Z,1.60
2022-09-11T17:49:53.940Z,1.50
2022-09-11T17:52:24.357Z,1.58
2022-09-11T17:54:52.564Z,1.38
2022-09-11T17:57:20.933Z,1.40
2022-09-11T17:59:50.423Z,2.00
2022-09-11T18:02:19.786Z,1.40
2022-09-11T18:04:49.253Z,1.50
2022-09-11T18:07:18.108Z,1.40
2022-09-11T18:09:48.063Z,1.52
2022-09-11T18:12:16.374Z,1.30
2022-09-11T18:14:44.603Z,1.67
2022-09-11T18:17:12.931Z,1.60
2022-09-11T18:19:41.184Z,1.50
2022-09-11T18:22:10.078Z,1.58
2022-09-11T18:24:39.807Z,1.58
2022-09-11T18:27:11.619Z,1.55
2022-09-11T18:29:40.712Z,1.70
2022-09-11T18:32:10.155Z,1.50
2022-09-11T18:34:38.556Z,1.50
2022-09-11T18:37:07.636Z,1.80
2022-09-11T18:39:36.203Z,1.55
2022-09-11T18:42:07.135Z,1.50
2022-09-11T18:44:36.822Z,1.63
2022-09-11T18:47:05.223Z,1.60
2022-09-11T18:49:34.835Z,1.50
2022-09-11T18:52:03.810Z,1.83
2022-09-11T18:54:33.699Z,1.80
2022-09-11T18:57:03.124Z,1.58
2022-09-11T18:59:31.348Z,1.55
2022-09-11T19:02:01.130Z,1.90
2022-09-11T19:04:29.496Z,1.83
2022-09-11T19:06:57.866Z,1.40
2022-09-11T19:09:26.530Z,1.70
2022-09-11T19:11:54.820Z,1.60
2022-09-11T19:14:23.239Z,1.63
2022-09-11T19:16:51.810Z,1.90
2022-09-11T19:19:21.637Z,1.92
2022-09-11T19:21:49.892Z,1.70
2022-09-11T19:24:19.155Z,1.70
2022-09-11T19:26:47.759Z,1.92
2022-09-11T19:29:16.035Z,1.50
2022-09-11T19:31:44.386Z,1.60
2022-09-11T19:34:15.370Z,1.55
2022-09-11T19:36:45.235Z,1.80
2022-09-11T19:39:13.583Z,1.50
2022-09-11T19:41:42.189Z,1.98
2022-09-11T19:44:15.047Z,2.08
2022-09-11T19:46:46.144Z,1.75
2022-09-11T19:49:14.425Z,1.73
2022-09-11T19:51:45.106Z,1.52
2022-09-11T19:54:15.026Z,1.63
2022-09-11T19:56:44.595Z,1.92
2022-09-11T19:59:14.343Z,1.75
2022-09-11T20:01:42.998Z,1.80
2022-09-11T20:04:12.369Z,1.67
2022-09-11T20:06:41.020Z,1.80
2022-09-11T20:09:30.325Z,1.60
2022-09-11T20:12:00.740Z,1.70
2022-09-11T20:14:30.334Z,1.60
2022-09-11T20:17:00.471Z,1.58
2022-09-11T20:19:29.110Z,1.60
2022-09-11T20:21:57.347Z,1.92
2022-09-11T20:24:27.316Z,1.60
2022-09-11T20:26:55.583Z,1.60
2022-09-11T20:29:23.805Z,1.90
2022-09-11T20:31:54.069Z,1.87
2022-09-11T20:34:27.926Z,1.60
2022-09-11T20:37:00.910Z,1.60
2022-09-11T20:39:30.857Z,1.80
2022-09-11T20:42:00.601Z,1.38
2022-09-11T20:44:29.024Z,1.80
2022-09-11T20:46:57.321Z,1.73
2022-09-11T20:49:25.549Z,2.15
2022-09-11T20:51:53.791Z,1.60
2022-09-11T20:54:21.985Z,2.00
2022-09-11T20:56:51.623Z,1.80
2022-09-11T20:59:19.844Z,1.95
2022-09-11T21:01:49.236Z,1.83
2022-09-11T21:04:17.656Z,1.90
2022-09-11T21:06:45.930Z,1.98
2022-09-11T21:09:14.297Z,1.80
2022-09-11T21:11:43.411Z,1.75
2022-09-11T21:14:14.491Z,1.70
2022-09-11T21:16:43.226Z,1.85
2022-09-11T21:19:11.513Z,1.77
2022-09-11T21:21:40.282Z,1.70
2022-09-11T21:24:12.355Z,1.73
2022-09-11T21:26:42.420Z,1.70
2022-09-11T21:29:14.383Z,1.60
2022-09-11T21:31:42.828Z,1.80
2022-09-11T21:34:11.992Z,1.60
2022-09-11T21:36:40.286Z,1.73
2022-09-11T21:39:08.599Z,1.90
2022-09-11T21:41:37.041Z,1.90
2022-09-11T21:44:05.678Z,2.00
2022-09-11T21:46:35.523Z,1.77
2022-09-11T21:49:03.892Z,2.00
2022-09-11T21:51:32.169Z,1.90
2022-09-11T21:54:01.862Z,1.80
2022-09-11T21:56:32.859Z,1.93
2022-09-11T21:59:02.359Z,2.10
2022-09-11T22:01:31.840Z,2.13
2022-09-11T22:04:02.009Z,1.90
2022-09-11T22:06:31.485Z,2.00
2022-09-11T22:08:59.884Z,2.17
2022-09-11T22:11:28.653Z,2.15
2022-09-11T22:13:57.259Z,2.00
2022-09-11T22:16:25.648Z,2.20
2022-09-11T22:18:55.523Z,1.93
2022-09-11T22:21:25.188Z,2.13
2022-09-11T22:23:53.498Z,2.20
2022-09-11T22:26:23.854Z,2.35
2022-09-11T22:28:52.711Z,2.33
2022-09-11T22:31:24.855Z,2.78
2022-09-11T22:33:55.133Z,2.13
2022-09-11T22:36:27.538Z,2.40
2022-09-11T22:38:57.074Z,2.42
2022-09-11T22:41:25.717Z,2.50
2022-09-11T22:43:54.311Z,2.30
2022-09-11T22:46:23.877Z,2.33
2022-09-11T22:48:52.257Z,2.45
2022-09-11T22:51:20.528Z,2.58
2022-09-11T22:53:50.993Z,2.53
2022-09-11T22:56:19.406Z,2.47
2022-09-11T22:58:47.710Z,2.70
2022-09-11T23:01:21.863Z,2.50
2022-09-11T23:03:51.219Z,2.47
2022-09-11T23:06:37.508Z,2.38
2022-09-11T23:09:08.986Z,2.58
2022-09-11T23:11:37.296Z,2.90
2022-09-11T23:14:07.459Z,2.53
2022-09-11T23:16:38.908Z,2.80
2022-09-11T23:19:08.298Z,2.60
2022-09-11T23:21:37.712Z,2.40
2022-09-11T23:24:10.474Z,2.72
2022-09-11T23:26:38.718Z,2.38
2022-09-11T23:29:06.994Z,2.70
2022-09-11T23:31:36.469Z,2.45
2022-09-11T23:34:07.898Z,2.60
2022-09-11T23:36:37.431Z,2.50
2022-09-11T23:39:07.327Z,2.58
2022-09-11T23:41:35.584Z,2.50
2022-09-11T23:44:04.719Z,3.10
2022-09-11T23:46:33.524Z,2.67
2022-09-11T23:49:01.805Z,2.60
2022-09-11T23:51:30.124Z,2.90
2022-09-11T23:53:58.403Z,2.65
2022-09-11T23:56:28.061Z,2.50
2022-09-11T23:58:56.489Z,2.70
